Time;durP1;ratioP1;P1;durP2;ratioP2;P2;SDS_P1;SDS_P2;PMS_P1;PMS_P2;Temp;Humidity;BMP_temperature;BMP_pressure;BME280_temperature;BME280_humidity;BME280_pressure;Samples;Min_cycle;Max_cycle;Signal;HPM_P1;HPM_P2
2023/11/28 00:00:11;;;;;;;13.30;9.88;;;4.90;99.90;;;;;;5039645;28;20537;-78
2023/11/28 00:02:38;;;;;;;15.50;11.05;;;5.00;99.90;;;;;;5057898;28;20029;-76
2023/11/28 00:05:05;;;;;;;12.05;9.70;;;5.00;99.90;;;;;;5042181;28;20523;-77
2023/11/28 00:07:33;;;;;;;14.90;10.55;;;5.10;99.90;;;;;;5056177;28;20021;-76
2023/11/28 00:10:03;;;;;;;13.75;9.65;;;5.10;99.90;;;;;;5048009;28;20060;-76
2023/11/28 00:12:29;;;;;;;13.30;9.70;;;5.00;99.90;;;;;;5042127;28;20037;-76
2023/11/28 00:14:55;;;;;;;13.88;10.50;;;5.00;99.90;;;;;;5050571;28;20103;-76
2023/11/28 00:17:21;;;;;;;14.07;10.50;;;5.00;99.90;;;;;;5051028;28;20581;-77
2023/11/28 00:19:47;;;;;;;15.05;11.25;;;4.90;99.90;;;;;;5047831;28;20119;-77
2023/11/28 00:22:12;;;;;;;15.07;11.25;;;4.90;99.90;;;;;;5045260;28;20025;-76
2023/11/28 00:24:38;;;;;;;14.32;10.65;;;4.90;99.90;;;;;;5058208;28;20750;-77
2023/11/28 00:27:05;;;;;;;10.82;9.07;;;4.90;99.90;;;;;;5038798;28;20052;-76
2023/11/28 00:29:30;;;;;;;13.73;9.80;;;4.90;99.90;;;;;;5045311;28;20083;-76
2023/11/28 00:31:56;;;;;;;12.93;9.80;;;4.90;99.90;;;;;;5055863;28;20025;-77
2023/11/28 00:34:25;;;;;;;14.63;11.15;;;4.90;99.90;;;;;;5048256;28;20044;-76
2023/11/28 00:36:51;;;;;;;14.68;10.50;;;4.90;99.90;;;;;;5047803;28;20472;-76
2023/11/28 00:39:17;;;;;;;13.55;10.43;;;4.80;99.90;;;;;;5041083;28;20036;-76
2023/11/28 00:41:43;;;;;;;14.95;11.00;;;4.90;99.90;;;;;;5038913;28;20402;-76
2023/11/28 00:44:10;;;;;;;13.45;10.32;;;4.90;99.90;;;;;;5047054;28;20082;-76
2023/11/28 00:46:42;;;;;;;14.52;10.43;;;5.00;99.90;;;;;;5048219;28;20024;-77
2023/11/28 00:49:09;;;;;;;17.05;11.02;;;5.00;99.90;;;;;;5048929;28;20514;-77
2023/11/28 00:51:34;;;;;;;13.48;10.30;;;5.10;99.90;;;;;;5035283;28;20029;-76
2023/11/28 00:54:01;;;;;;;11.73;9.00;;;5.10;99.90;;;;;;5041148;28;20033;-76
2023/11/28 00:56:27;;;;;;;13.73;10.93;;;5.10;99.90;;;;;;5038004;28;20120;-76
2023/11/28 00:58:53;;;;;;;13.07;10.43;;;4.80;99.90;;;;;;5040615;28;20030;-76
2023/11/28 01:01:19;;;;;;;13.23;10.60;;;4.90;99.90;;;;;;5050146;28;20304;-76
2023/11/28 01:03:45;;;;;;;12.25;9.52;;;4.90;99.90;;;;;;5045420;28;20017;-76
2023/11/28 01:06:12;;;;;;;12.40;9.57;;;5.00;99.90;;;;;;5049076;28;20063;-76
2023/11/28 01:08:37;;;;;;;12.73;9.93;;;5.10;99.90;;;;;;5046733;28;20025;-77
2023/11/28 01:11:03;;;;;;;14.02;10.05;;;5.10;99.90;;;;;;5049280;28;20301;-76
2023/11/28 01:13:29;;;;;;;14.45;10.20;;;5.10;99.90;;;;;;5049189;28;20475;-76
2023/11/28 01:15:55;;;;;;;15.00;10.75;;;5.10;99.90;;;;;;5048857;28;20013;-76
2023/11/28 01:18:21;;;;;;;10.70;8.85;;;5.00;99.90;;;;;;5036507;28;20033;-77
2023/11/28 01:20:47;;;;;;;10.52;8.90;;;4.90;99.90;;;;;;5043603;28;20499;-77
2023/11/28 01:23:13;;;;;;;10.60;8.95;;;4.90;99.90;;;;;;5043022;28;20080;-76
2023/11/28 01:25:40;;;;;;;12.65;9.23;;;4.90;99.90;;;;;;5043402;28;20024;-76
2023/11/28 01:28:05;;;;;;;11.00;9.68;;;5.00;99.90;;;;;;5049570;28;20096;-76
2023/11/28 01:30:31;;;;;;;12.77;9.57;;;5.00;99.90;;;;;;5044044;28;20108;-76
2023/11/28 01:32:57;;;;;;;10.70;9.60;;;4.90;99.90;;;;;;5043786;28;20104;-76
2023/11/28 01:35:22;;;;;;;10.20;9.10;;;4.90;99.90;;;;;;5046858;28;20033;-76
2023/11/28 01:37:48;;;;;;;11.27;10.07;;;4.90;99.90;;;;;;5057177;28;20025;-76
2023/11/28 01:40:14;;;;;;;10.05;9.05;;;5.00;99.90;;;;;;5037331;28;20035;-76
2023/11/28 01:42:39;;;;;;;9.70;8.70;;;5.00;99.90;;;;;;5055051;28;20546;-75
2023/11/28 01:45:06;;;;;;;10.18;9.10;;;5.00;99.90;;;;;;5041310;28;20033;-76
2023/11/28 01:47:33;;;;;;;10.65;9.25;;;5.10;99.90;;;;;;5042283;28;20055;-76
2023/11/28 01:50:00;;;;;;;12.52;10.60;;;5.10;99.90;;;;;;5042773;28;20083;-77
2023/11/28 01:52:27;;;;;;;10.30;9.20;;;5.10;99.90;;;;;;5046830;28;20025;-76
2023/11/28 01:54:54;;;;;;;11.68;10.32;;;5.00;99.90;;;;;;5051129;28;20029;-77
2023/11/28 01:57:19;;;;;;;11.00;9.82;;;5.10;99.90;;;;;;5045449;28;20056;-76
2023/11/28 01:59:47;;;;;;;12.05;10.68;;;5.10;99.90;;;;;;5035208;28;20463;-76
2023/11/28 02:02:14;;;;;;;11.82;10.48;;;5.20;99.90;;;;;;5041790;28;20018;-76
2023/11/28 02:04:41;;;;;;;11.85;10.63;;;5.20;99.90;;;;;;5037487;28;20044;-75
2023/11/28 02:07:07;;;;;;;13.30;10.98;;;5.10;99.90;;;;;;5044166;28;20479;-76
2023/11/28 02:09:32;;;;;;;13.00;10.98;;;5.00;99.90;;;;;;5043360;28;20040;-76
2023/11/28 02:11:58;;;;;;;13.40;11.80;;;5.00;99.90;;;;;;5035733;28;20104;-76
2023/11/28 02:14:24;;;;;;;13.57;11.32;;;5.10;99.90;;;;;;5046393;28;20052;-76
2023/11/28 02:16:50;;;;;;;15.52;12.48;;;5.10;99.90;;;;;;5041836;28;20100;-76
2023/11/28 02:19:16;;;;;;;13.07;11.43;;;5.10;99.90;;;;;;5039982;28;20230;-76
2023/11/28 02:21:41;;;;;;;14.88;12.30;;;5.00;99.90;;;;;;5040508;28;20425;-75
2023/11/28 02:24:12;;;;;;;15.05;12.55;;;4.90;99.90;;;;;;5034122;28;20029;-76
2023/11/28 02:26:38;;;;;;;16.25;12.65;;;4.90;99.90;;;;;;5040149;28;20446;-76
2023/11/28 02:29:03;;;;;;;17.13;13.10;;;4.90;99.90;;;;;;5040103;28;20061;-77
2023/11/28 02:31:29;;;;;;;17.38;11.82;;;5.10;99.90;;;;;;5062957;28;20029;-76
2023/11/28 02:33:55;;;;;;;15.27;12.25;;;5.00;99.90;;;;;;5043834;28;20412;-76
2023/11/28 02:36:21;;;;;;;14.13;11.60;;;5.00;99.90;;;;;;5061859;28;20033;-76
2023/11/28 02:38:47;;;;;;;15.65;11.30;;;4.90;99.90;;;;;;5040788;28;20028;-76
2023/11/28 02:41:13;;;;;;;12.88;10.88;;;4.90;99.90;;;;;;5061775;28;20024;-76
2023/11/28 02:43:38;;;;;;;13.32;11.15;;;5.00;99.90;;;;;;5039949;28;20033;-76
2023/11/28 02:46:04;;;;;;;16.23;11.75;;;4.90;99.90;;;;;;5043202;28;20499;-76
2023/11/28 02:48:30;;;;;;;13.88;11.98;;;4.90;99.90;;;;;;5043267;28;20031;-76
2023/11/28 02:50:56;;;;;;;13.18;11.20;;;4.90;99.90;;;;;;5043611;28;20024;-76
2023/11/28 02:53:21;;;;;;;14.27;11.23;;;4.90;99.90;;;;;;5045539;28;20240;-77
2023/11/28 02:55:47;;;;;;;13.40;11.45;;;4.90;99.90;;;;;;5041115;28;20028;-76
2023/11/28 02:58:13;;;;;;;12.70;10.98;;;4.80;99.90;;;;;;5045049;28;20096;-76
2023/11/28 03:00:39;;;;;;;12.82;10.95;;;4.80;99.90;;;;;;5035406;28;20495;-77
2023/11/28 03:03:05;;;;;;;12.23;10.05;;;4.80;99.90;;;;;;5058343;28;20407;-76
2023/11/28 03:05:31;;;;;;;11.50;10.30;;;4.70;99.90;;;;;;5042124;28;20086;-76
2023/11/28 03:07:57;;;;;;;9.57;8.38;;;4.80;99.90;;;;;;5040968;28;20029;-76
2023/11/28 03:10:22;;;;;;;12.65;9.68;;;4.80;99.90;;;;;;5044418;28;20017;-76
2023/11/28 03:12:48;;;;;;;12.57;10.48;;;4.80;99.90;;;;;;5033443;28;20026;-77
2023/11/28 03:15:14;;;;;;;10.25;9.13;;;4.80;99.90;;;;;;5042155;28;20026;-76
2023/11/28 03:17:40;;;;;;;11.27;9.10;;;4.80;99.90;;;;;;5038994;28;20026;-77
2023/11/28 03:20:07;;;;;;;10.45;8.85;;;4.80;99.90;;;;;;5040841;28;20021;-76
2023/11/28 03:22:32;;;;;;;11.00;8.95;;;4.80;99.90;;;;;;5043922;28;20494;-76
2023/11/28 03:25:08;;;;;;;10.23;8.98;;;4.90;99.90;;;;;;5048100;28;20021;-76
2023/11/28 03:27:34;;;;;;;12.95;9.85;;;4.90;99.90;;;;;;5040932;28;20361;-76
2023/11/28 03:30:00;;;;;;;10.93;8.85;;;4.80;99.90;;;;;;5048327;28;20028;-77
2023/11/28 03:32:26;;;;;;;11.57;9.65;;;4.80;99.90;;;;;;5047198;28;20032;-76
2023/11/28 03:34:51;;;;;;;10.55;8.90;;;4.80;99.90;;;;;;5057520;28;20025;-76
2023/11/28 03:37:17;;;;;;;16.83;9.68;;;4.80;99.90;;;;;;5044776;28;20502;-76
2023/11/28 03:39:43;;;;;;;12.40;9.82;;;4.80;99.90;;;;;;5052122;28;20021;-76
2023/11/28 03:42:09;;;;;;;12.20;9.82;;;4.70;99.90;;;;;;5050497;28;20036;-76
2023/11/28 03:44:34;;;;;;;10.43;9.25;;;4.80;99.90;;;;;;5049258;28;20025;-76
2023/11/28 03:47:00;;;;;;;11.95;9.40;;;4.80;99.90;;;;;;5049602;28;20052;-76
2023/11/28 03:49:26;;;;;;;13.27;10.40;;;4.70;99.90;;;;;;5050012;28;20475;-76
2023/11/28 03:51:52;;;;;;;13.10;10.57;;;4.80;99.90;;;;;;5052721;28;20111;-76
2023/11/28 03:54:19;;;;;;;12.85;9.90;;;4.80;99.90;;;;;;5054564;28;20018;-77
2023/11/28 03:56:45;;;;;;;12.52;10.07;;;4.90;99.90;;;;;;5049861;28;20033;-76
2023/11/28 03:59:11;;;;;;;14.88;11.02;;;4.80;99.90;;;;;;5053217;28;20082;-76
2023/11/28 04:01:37;;;;;;;14.20;10.80;;;4.80;99.90;;;;;;5047892;28;20025;-75
2023/11/28 04:04:03;;;;;;;14.93;10.50;;;4.80;99.90;;;;;;5052471;28;20490;-76
2023/11/28 04:06:29;;;;;;;14.02;11.23;;;4.80;99.90;;;;;;5046611;28;20028;-76
2023/11/28 04:08:55;;;;;;;15.90;11.30;;;4.80;99.90;;;;;;5041596;28;20035;-76
2023/11/28 04:11:21;;;;;;;14.57;11.80;;;4.70;99.90;;;;;;5043320;28;20315;-76
2023/11/28 04:13:47;;;;;;;15.25;11.65;;;4.80;99.90;;;;;;5048298;28;20517;-76
2023/11/28 04:16:17;;;;;;;14.02;10.68;;;4.80;99.90;;;;;;5047549;28;20013;-76
2023/11/28 04:18:45;;;;;;;14.30;11.40;;;4.80;99.90;;;;;;5050185;28;20106;-76
2023/11/28 04:21:20;;;;;;;14.77;10.75;;;4.70;99.90;;;;;;5047838;28;20029;-77
2023/11/28 04:23:46;;;;;;;15.23;10.50;;;4.80;99.90;;;;;;5049724;28;20479;-76
2023/11/28 04:26:12;;;;;;;13.43;10.98;;;4.70;99.90;;;;;;5051922;28;20017;-77
2023/11/28 04:28:38;;;;;;;14.13;11.18;;;4.60;99.90;;;;;;5047199;28;20479;-76
2023/11/28 04:31:04;;;;;;;16.38;10.85;;;4.70;99.90;;;;;;5049328;28;20100;-76
2023/11/28 04:33:29;;;;;;;15.30;11.23;;;4.70;99.90;;;;;;5046559;28;20036;-76
2023/11/28 04:35:56;;;;;;;14.57;11.90;;;4.60;99.90;;;;;;5043287;28;20076;-76
2023/11/28 04:38:24;;;;;;;14.45;11.50;;;4.60;99.90;;;;;;5051020;28;20025;-77
2023/11/28 04:40:50;;;;;;;14.55;11.20;;;4.70;99.90;;;;;;5048933;28;20033;-76
2023/11/28 04:43:16;;;;;;;13.85;11.25;;;4.70;99.90;;;;;;5050577;28;20017;-76
2023/11/28 04:45:42;;;;;;;14.18;11.70;;;4.70;99.90;;;;;;5049286;28;20031;-76
2023/11/28 04:48:07;;;;;;;13.63;11.13;;;4.70;99.90;;;;;;5051901;28;20017;-76
2023/11/28 04:50:33;;;;;;;13.85;11.30;;;4.70;99.90;;;;;;5039932;28;20463;-76
2023/11/28 04:52:59;;;;;;;16.73;11.57;;;4.70;99.90;;;;;;5049276;28;20060;-77
2023/11/28 04:55:24;;;;;;;15.02;11.88;;;4.80;99.90;;;;;;5050031;28;20033;-76
2023/11/28 04:57:50;;;;;;;17.38;12.75;;;4.70;99.90;;;;;;5047876;28;20028;-76
2023/11/28 05:00:16;;;;;;;17.95;13.55;;;4.50;99.90;;;;;;5049381;28;20034;-76
2023/11/28 05:02:42;;;;;;;19.38;13.98;;;4.50;99.90;;;;;;5061483;28;20047;-76
2023/11/28 05:05:08;;;;;;;21.02;14.98;;;4.50;99.90;;;;;;5049134;28;20028;-76
2023/11/28 05:07:34;;;;;;;18.95;14.02;;;4.50;99.90;;;;;;5043084;28;20032;-76
2023/11/28 05:10:00;;;;;;;17.40;13.82;;;4.50;99.90;;;;;;5050237;28;20383;-76
2023/11/28 05:12:26;;;;;;;14.90;11.85;;;4.50;99.90;;;;;;5051202;28;20035;-76
2023/11/28 05:14:51;;;;;;;15.80;12.70;;;4.50;99.90;;;;;;5048757;28;20115;-76
2023/11/28 05:17:18;;;;;;;15.50;11.93;;;4.50;99.90;;;;;;5049423;28;20028;-75
2023/11/28 05:19:43;;;;;;;18.88;13.30;;;4.50;99.90;;;;;;5044433;28;20029;-76
2023/11/28 05:22:10;;;;;;;16.83;13.07;;;4.50;99.90;;;;;;5046876;28;20025;-75
2023/11/28 05:24:35;;;;;;;15.82;12.27;;;4.50;99.90;;;;;;5048076;28;20147;-76
2023/11/28 05:27:01;;;;;;;18.80;12.05;;;4.50;99.90;;;;;;5046385;28;20092;-76
2023/11/28 05:29:27;;;;;;;18.90;12.63;;;4.40;99.90;;;;;;5047836;28;20072;-76
2023/11/28 05:31:53;;;;;;;18.83;12.20;;;4.40;99.90;;;;;;5047967;28;20032;-76
2023/11/28 05:34:19;;;;;;;15.85;11.32;;;4.30;99.90;;;;;;5047060;28;20160;-76
2023/11/28 05:36:45;;;;;;;15.15;11.00;;;4.30;99.90;;;;;;5050491;28;20495;-75
2023/11/28 05:39:11;;;;;;;12.77;9.95;;;4.20;99.90;;;;;;5045571;28;20032;-76
2023/11/28 05:41:36;;;;;;;12.63;9.80;;;4.10;99.90;;;;;;5045237;28;20021;-76
2023/11/28 05:44:04;;;;;;;13.40;10.15;;;4.20;99.90;;;;;;5056273;28;20023;-76
2023/11/28 05:46:30;;;;;;;15.10;11.05;;;4.30;99.90;;;;;;5051004;28;20021;-76
2023/11/28 05:48:56;;;;;;;13.15;11.52;;;4.40;99.90;;;;;;5049835;28;20041;-76
2023/11/28 05:51:21;;;;;;;12.48;11.05;;;4.40;99.90;;;;;;5048729;28;20476;-76
2023/11/28 05:53:48;;;;;;;16.52;11.95;;;4.60;99.90;;;;;;5044898;28;20380;-76
2023/11/28 05:56:13;;;;;;;14.38;12.13;;;4.60;99.90;;;;;;5046150;28;20043;-76
2023/11/28 05:58:40;;;;;;;14.75;12.63;;;4.70;99.90;;;;;;5047870;28;20021;-76
2023/11/28 06:01:06;;;;;;;14.82;12.30;;;4.70;99.90;;;;;;5044376;28;20113;-76
2023/11/28 06:03:32;;;;;;;10.60;8.75;;;4.60;99.90;;;;;;5058338;28;20119;-76
2023/11/28 06:06:00;;;;;;;10.98;8.45;;;4.30;99.90;;;;;;5041619;28;20096;-76
2023/11/28 06:08:25;;;;;;;8.18;7.20;;;4.30;99.90;;;;;;5063681;28;20380;-76
2023/11/28 06:10:51;;;;;;;9.70;6.78;;;4.20;99.90;;;;;;5048258;28;20052;-76
2023/11/28 06:13:17;;;;;;;10.07;6.70;;;4.20;99.90;;;;;;5048488;28;20107;-76
2023/11/28 06:15:43;;;;;;;9.02;7.07;;;4.20;99.90;;;;;;5047041;28;20053;-75
2023/11/28 06:18:10;;;;;;;9.15;6.85;;;4.20;99.90;;;;;;5060721;28;20014;-76
2023/11/28 06:20:37;;;;;;;10.88;7.68;;;4.30;99.90;;;;;;5055070;28;20020;-75
2023/11/28 06:23:03;;;;;;;6.78;5.95;;;4.20;99.90;;;;;;5047165;28;20029;-75
2023/11/28 06:25:30;;;;;;;7.90;6.05;;;4.10;99.90;;;;;;5048733;28;20040;-76
2023/11/28 06:27:56;;;;;;;5.75;4.78;;;4.00;99.90;;;;;;5065364;28;20029;-76
2023/11/28 06:30:21;;;;;;;5.85;4.97;;;4.00;99.90;;;;;;5051517;28;20127;-75
2023/11/28 06:32:47;;;;;;;7.78;5.03;;;4.00;99.90;;;;;;5047279;28;20502;-76
2023/11/28 06:35:13;;;;;;;6.72;4.85;;;4.00;99.90;;;;;;5045460;28;20075;-76
2023/11/28 06:37:39;;;;;;;4.50;3.85;;;3.90;99.90;;;;;;5048216;28;20033;-76
2023/11/28 06:40:05;;;;;;;6.65;3.85;;;3.80;99.90;;;;;;5054499;28;20056;-76
2023/11/28 06:42:31;;;;;;;5.68;4.40;;;3.80;99.90;;;;;;5048100;28;20284;-77
2023/11/28 06:44:57;;;;;;;6.10;4.30;;;3.80;99.90;;;;;;5047746;28;20028;-75
2023/11/28 06:47:23;;;;;;;4.47;4.00;;;3.80;99.90;;;;;;5065408;28;20017;-75
2023/11/28 06:49:49;;;;;;;6.18;4.20;;;3.80;99.90;;;;;;5044751;28;20025;-76
2023/11/28 06:52:15;;;;;;;6.38;4.50;;;3.80;99.90;;;;;;5046497;28;20028;-75
2023/11/28 06:54:42;;;;;;;4.88;4.10;;;3.80;99.90;;;;;;5045618;28;20029;-76
2023/11/28 06:57:08;;;;;;;6.07;4.10;;;3.80;99.90;;;;;;5051199;28;20031;-76
2023/11/28 06:59:35;;;;;;;4.70;3.88;;;3.80;99.90;;;;;;5061478;28;20025;-76
2023/11/28 07:02:01;;;;;;;6.38;4.10;;;3.80;99.90;;;;;;5050960;28;20032;-76
2023/11/28 07:04:27;;;;;;;6.55;3.72;;;3.90;99.90;;;;;;5054746;28;20021;-76
2023/11/28 07:06:53;;;;;;;5.07;4.25;;;3.80;99.90;;;;;;5047143;28;20032;-76
2023/11/28 07:09:19;;;;;;;6.30;5.03;;;3.80;99.90;;;;;;5051306;28;20620;-76
2023/11/28 07:11:45;;;;;;;6.72;3.90;;;3.80;99.90;;;;;;5048374;28;20025;-75
2023/11/28 07:14:11;;;;;;;5.88;4.18;;;3.70;99.90;;;;;;5065994;28;20078;-76
2023/11/28 07:16:37;;;;;;;7.28;4.20;;;3.70;99.90;;;;;;5059170;28;20260;-76
2023/11/28 07:19:02;;;;;;;6.88;4.55;;;3.70;99.90;;;;;;5050517;28;20021;-76
2023/11/28 07:21:28;;;;;;;7.20;4.30;;;3.70;99.90;;;;;;5045220;28;20092;-76
2023/11/28 07:23:54;;;;;;;5.75;4.47;;;3.70;99.90;;;;;;5044652;28;20021;-76
2023/11/28 07:26:20;;;;;;;6.68;4.13;;;3.60;99.90;;;;;;5064880;28;20017;-76
2023/11/28 07:28:46;;;;;;;6.60;5.13;;;3.70;99.90;;;;;;5046594;28;20025;-76
2023/11/28 07:31:16;;;;;;;6.82;4.20;;;3.70;99.90;;;;;;5043166;28;20025;-76
2023/11/28 07:33:42;;;;;;;4.68;4.10;;;3.70;99.90;;;;;;5056059;28;20021;-76
2023/11/28 07:36:12;;;;;;;6.28;4.28;;;3.80;99.90;;;;;;5065941;28;20052;-76
2023/11/28 07:38:40;;;;;;;6.60;4.72;;;3.70;99.90;;;;;;5053671;28;20029;-76
2023/11/28 07:41:05;;;;;;;6.10;4.28;;;3.70;99.90;;;;;;5039328;28;20431;-75
2023/11/28 07:43:33;;;;;;;5.93;4.30;;;3.80;99.90;;;;;;5039122;28;20021;-76
2023/11/28 07:45:59;;;;;;;7.10;4.30;;;3.80;99.90;;;;;;5053325;28;20025;-75
2023/11/28 07:48:25;;;;;;;6.13;4.55;;;3.80;99.90;;;;;;5051205;28;20028;-75
2023/11/28 07:50:51;;;;;;;5.63;4.22;;;3.80;99.90;;;;;;5044058;28;20415;-75
2023/11/28 07:53:17;;;;;;;6.30;4.65;;;3.70;99.90;;;;;;5049844;28;20032;-75
2023/11/28 07:55:43;;;;;;;5.50;4.05;;;3.70;99.90;;;;;;5070907;28;20048;-76
2023/11/28 07:58:09;;;;;;;6.47;4.60;;;3.80;99.90;;;;;;5048492;28;20025;-75
2023/11/28 08:00:35;;;;;;;6.03;4.43;;;3.80;99.90;;;;;;5045719;28;20056;-75
2023/11/28 08:03:02;;;;;;;6.20;4.45;;;3.80;99.90;;;;;;5069790;28;20021;-75
2023/11/28 08:05:28;;;;;;;6.20;4.20;;;3.80;99.90;;;;;;5047874;28;20029;-75
2023/11/28 08:07:54;;;;;;;6.78;4.38;;;3.90;99.90;;;;;;5049000;28;20028;-75
2023/11/28 08:10:22;;;;;;;7.53;5.20;;;4.00;99.90;;;;;;5047312;28;20020;-75
2023/11/28 08:12:48;;;;;;;8.63;4.78;;;3.90;99.90;;;;;;5053310;28;20044;-75
2023/11/28 08:15:14;;;;;;;6.60;4.90;;;3.90;99.90;;;;;;5004601;28;20037;-75
2023/11/28 08:17:40;;;;;;;9.20;4.85;;;3.80;99.90;;;;;;5032086;28;20022;-76
2023/11/28 08:20:08;;;;;;;6.97;4.97;;;3.70;99.90;;;;;;5036854;28;20402;-74
2023/11/28 08:22:33;;;;;;;7.03;5.25;;;3.60;99.90;;;;;;5038371;28;20017;-74
2023/11/28 08:25:00;;;;;;;7.60;5.30;;;3.70;99.90;;;;;;5041626;28;20013;-74
2023/11/28 08:27:26;;;;;;;12.77;5.53;;;3.70;99.90;;;;;;5039327;28;20471;-75
2023/11/28 08:29:52;;;;;;;6.53;5.00;;;3.70;99.90;;;;;;5038127;28;20036;-74
2023/11/28 08:32:18;;;;;;;10.02;5.78;;;3.60;99.90;;;;;;5037038;28;20025;-74
2023/11/28 08:34:44;;;;;;;6.03;4.80;;;3.70;99.90;;;;;;5032898;28;20037;-74
2023/11/28 08:37:12;;;;;;;6.47;4.97;;;3.70;99.90;;;;;;5037405;28;20517;-74
2023/11/28 08:39:38;;;;;;;8.70;5.53;;;3.80;99.90;;;;;;5040748;28;20110;-74
2023/11/28 08:42:04;;;;;;;8.05;5.07;;;3.80;99.90;;;;;;5039382;28;20476;-74
2023/11/28 08:44:32;;;;;;;7.25;5.30;;;3.80;99.90;;;;;;5038222;28;20033;-74
2023/11/28 08:46:58;;;;;;;6.47;5.10;;;3.90;99.90;;;;;;5037294;28;20068;-75
2023/11/28 08:49:24;;;;;;;7.72;5.30;;;3.90;99.90;;;;;;5034211;28;20021;-75
2023/11/28 08:51:50;;;;;;;6.50;5.18;;;4.00;99.90;;;;;;5036692;28;20359;-74
2023/11/28 08:54:16;;;;;;;6.47;4.85;;;4.00;99.90;;;;;;5037264;28;20047;-75
2023/11/28 08:56:42;;;;;;;7.88;4.68;;;4.00;99.90;;;;;;5034812;28;20025;-76
2023/11/28 08:59:08;;;;;;;8.25;4.95;;;4.10;99.90;;;;;;5034259;28;20078;-75
2023/11/28 09:01:34;;;;;;;10.35;5.13;;;4.10;99.90;;;;;;5035510;28;20068;-75
2023/11/28 09:04:03;;;;;;;10.02;4.93;;;4.20;99.90;;;;;;5035158;28;20053;-75
2023/11/28 09:06:29;;;;;;;5.45;4.30;;;4.20;99.90;;;;;;5033216;28;20029;-75
2023/11/28 09:08:54;;;;;;;5.30;4.45;;;4.30;99.90;;;;;;5034623;28;20037;-75
2023/11/28 09:11:21;;;;;;;5.47;4.53;;;4.30;99.90;;;;;;5027658;28;20080;-75
2023/11/28 09:13:46;;;;;;;4.88;4.03;;;4.30;99.90;;;;;;5032244;28;20013;-75
2023/11/28 09:16:13;;;;;;;6.60;4.45;;;4.20;99.90;;;;;;5035788;28;20010;-76
2023/11/28 09:18:41;;;;;;;6.28;4.47;;;4.30;99.90;;;;;;5028126;28;20121;-77
2023/11/28 09:21:08;;;;;;;6.97;5.00;;;4.30;99.90;;;;;;5033096;28;20423;-76
2023/11/28 09:23:37;;;;;;;6.85;4.40;;;4.30;99.90;;;;;;5035341;28;20048;-76
2023/11/28 09:26:03;;;;;;;7.03;4.93;;;4.30;99.90;;;;;;5034313;28;20084;-74
2023/11/28 09:28:29;;;;;;;5.43;4.75;;;4.40;99.90;;;;;;5030074;28;20013;-76
2023/11/28 09:30:54;;;;;;;8.40;4.55;;;4.50;99.90;;;;;;5032671;28;20032;-75
2023/11/28 09:33:20;;;;;;;5.57;4.50;;;4.50;99.90;;;;;;5037171;28;20513;-76
2023/11/28 09:35:46;;;;;;;6.47;4.00;;;4.40;99.90;;;;;;5035225;28;20021;-76
2023/11/28 09:38:11;;;;;;;5.75;4.53;;;4.50;99.90;;;;;;5032424;28;20487;-76
2023/11/28 09:40:38;;;;;;;8.32;4.28;;;4.60;99.90;;;;;;5034831;28;20499;-75
2023/11/28 09:43:04;;;;;;;7.82;4.57;;;4.60;99.90;;;;;;5032397;28;20116;-76
2023/11/28 09:45:33;;;;;;;5.82;4.28;;;4.50;99.90;;;;;;5035321;28;20588;-75
2023/11/28 09:48:21;;;;;;;7.78;3.92;;;4.60;99.90;;;;;;5034644;28;20028;-76
2023/11/28 09:50:51;;;;;;;6.35;4.20;;;4.50;99.90;;;;;;5052865;28;20017;-75
2023/11/28 09:53:23;;;;;;;3.97;3.53;;;4.50;99.90;;;;;;5031289;28;20092;-76
2023/11/28 09:55:51;;;;;;;4.72;3.95;;;4.50;99.90;;;;;;5030425;28;20018;-76
2023/11/28 09:58:20;;;;;;;4.40;3.95;;;4.50;99.90;;;;;;5048373;28;20018;-76
2023/11/28 10:00:46;;;;;;;4.82;4.07;;;4.50;99.90;;;;;;5047373;28;20528;-75
2023/11/28 10:03:12;;;;;;;5.20;4.28;;;4.60;99.90;;;;;;5033685;28;20020;-75
2023/11/28 10:05:38;;;;;;;3.95;3.55;;;4.60;99.90;;;;;;5033422;28;20020;-74
2023/11/28 10:08:07;;;;;;;6.13;4.40;;;4.80;99.90;;;;;;5033753;28;20025;-76
2023/11/28 10:10:36;;;;;;;7.75;3.90;;;4.70;99.90;;;;;;5029170;28;20472;-75
2023/11/28 10:13:02;;;;;;;7.22;4.00;;;4.70;99.90;;;;;;5035716;28;20033;-76
2023/11/28 10:15:28;;;;;;;4.35;3.72;;;4.70;99.90;;;;;;5027200;28;20464;-75
2023/11/28 10:17:55;;;;;;;7.40;3.88;;;4.70;99.90;;;;;;5031188;28;20024;-74
2023/11/28 10:20:21;;;;;;;5.93;4.00;;;4.70;99.90;;;;;;5034658;28;20533;-74
2023/11/28 10:22:51;;;;;;;3.80;3.20;;;4.80;99.90;;;;;;5027516;28;20045;-75
2023/11/28 10:25:19;;;;;;;4.72;3.50;;;4.90;99.90;;;;;;5028734;28;20024;-75
2023/11/28 10:27:46;;;;;;;5.00;3.80;;;4.80;99.90;;;;;;5032332;28;20013;-75
2023/11/28 10:30:20;;;;;;;7.32;3.90;;;4.80;99.90;;;;;;5033186;28;20021;-75
2023/11/28 10:32:48;;;;;;;7.35;3.80;;;4.70;99.90;;;;;;5035016;28;20025;-75
2023/11/28 10:35:14;;;;;;;3.92;3.30;;;4.70;99.90;;;;;;5035652;28;20021;-75
2023/11/28 10:37:40;;;;;;;5.50;4.40;;;4.80;99.90;;;;;;5035335;28;20093;-75
2023/11/28 10:40:10;;;;;;;7.18;4.28;;;4.80;99.90;;;;;;5038058;28;20091;-75
2023/11/28 10:42:37;;;;;;;4.75;3.83;;;4.70;99.90;;;;;;5037138;28;20108;-76
2023/11/28 10:45:06;;;;;;;34.67;6.05;;;4.70;99.90;;;;;;5052701;28;20033;-76
2023/11/28 10:47:33;;;;;;;4.70;3.53;;;4.70;99.90;;;;;;5038610;28;20033;-76
2023/11/28 10:49:59;;;;;;;4.30;3.28;;;4.90;99.90;;;;;;5033228;28;20024;-76
2023/11/28 10:52:27;;;;;;;5.03;3.60;;;5.00;99.90;;;;;;5049562;28;20025;-76
2023/11/28 10:54:56;;;;;;;5.18;2.80;;;5.00;99.90;;;;;;5035849;28;20026;-75
2023/11/28 10:57:29;;;;;;;5.25;3.65;;;5.00;99.90;;;;;;5036249;28;20067;-76
2023/11/28 11:00:06;;;;;;;3.95;3.13;;;4.90;99.90;;;;;;5035670;28;20123;-75
2023/11/28 11:02:31;;;;;;;6.28;3.58;;;4.90;99.90;;;;;;5038085;28;20025;-76
2023/11/28 11:04:57;;;;;;;3.42;3.13;;;4.90;99.90;;;;;;5035114;28;20526;-75
2023/11/28 11:07:25;;;;;;;4.07;3.00;;;4.90;99.90;;;;;;5037440;28;20021;-75
2023/11/28 11:09:51;;;;;;;4.00;2.67;;;4.80;99.90;;;;;;5039177;28;20049;-75
2023/11/28 11:12:19;;;;;;;4.75;2.83;;;4.70;99.90;;;;;;5032124;28;20472;-76
2023/11/28 11:15:03;;;;;;;3.35;2.70;;;4.80;99.90;;;;;;5040420;28;20399;-77
2023/11/28 11:18:13;;;;;;;3.78;2.33;;;4.80;99.90;;;;;;5036784;28;20021;-76
2023/11/28 11:20:41;;;;;;;4.13;2.40;;;4.90;99.90;;;;;;5005189;28;20041;-76
2023/11/28 11:23:09;;;;;;;2.25;2.05;;;5.00;99.90;;;;;;5013629;28;20014;-76
2023/11/28 11:25:40;;;;;;;2.78;2.40;;;5.10;99.90;;;;;;5022875;28;20365;-75
2023/11/28 11:28:08;;;;;;;4.18;2.50;;;5.00;99.90;;;;;;5034162;28;20013;-77
2023/11/28 11:30:36;;;;;;;2.55;2.35;;;5.10;99.90;;;;;;5057776;28;20463;-74
2023/11/28 11:33:04;;;;;;;2.45;2.25;;;5.10;99.90;;;;;;5034741;28;20024;-76
2023/11/28 11:35:31;;;;;;;2.85;2.40;;;5.00;99.90;;;;;;5058106;28;20044;-75
2023/11/28 11:38:00;;;;;;;2.22;2.03;;;5.00;99.90;;;;;;5032877;28;20488;-77
2023/11/28 11:40:27;;;;;;;2.88;2.40;;;5.00;99.90;;;;;;5028144;28;20021;-76
2023/11/28 11:42:52;;;;;;;2.40;2.20;;;4.90;99.90;;;;;;5032378;28;20474;-75
2023/11/28 11:45:20;;;;;;;2.70;2.50;;;5.00;99.90;;;;;;5030296;28;20049;-77
2023/11/28 11:47:47;;;;;;;2.58;2.20;;;5.00;99.90;;;;;;5034305;28;20039;-76
2023/11/28 11:50:19;;;;;;;2.70;2.50;;;5.00;99.90;;;;;;5036779;28;20059;-77
2023/11/28 11:52:45;;;;;;;;;;;5.00;99.90;;;;;;5033996;28;20460;-76
2023/11/28 11:55:13;;;;;;;4.22;2.53;;;5.00;99.90;;;;;;5036309;28;19905;-75
2023/11/28 11:57:42;;;;;;;3.03;2.42;;;5.10;99.90;;;;;;5033804;28;20052;-76
2023/11/28 12:00:13;;;;;;;2.25;2.05;;;5.20;99.90;;;;;;5035138;28;20078;-76
2023/11/28 12:02:45;;;;;;;3.90;2.22;;;5.20;99.90;;;;;;5034542;28;20025;-76
2023/11/28 12:05:12;;;;;;;;;;;5.20;99.90;;;;;;5034768;28;20451;-75
2023/11/28 12:07:40;;;;;;;2.85;2.35;;;5.20;99.90;;;;;;5033706;28;20322;-77
2023/11/28 12:10:08;;;;;;;4.78;2.10;;;5.20;99.90;;;;;;5036534;28;20023;-76
2023/11/28 12:12:34;;;;;;;6.57;2.80;;;5.20;99.90;;;;;;5033265;28;20025;-76
2023/11/28 12:15:00;;;;;;;9.10;2.80;;;5.30;99.90;;;;;;5033131;28;20371;-75
2023/11/28 12:17:26;;;;;;;5.03;2.50;;;5.30;99.90;;;;;;5030124;28;20021;-75
2023/11/28 12:19:52;;;;;;;2.30;2.10;;;5.40;99.90;;;;;;5034311;28;20438;-76
2023/11/28 12:22:18;;;;;;;2.55;2.00;;;5.40;99.90;;;;;;5045821;28;20025;-76
2023/11/28 12:24:44;;;;;;;2.47;2.15;;;5.40;99.90;;;;;;5032321;28;20432;-76
2023/11/28 12:27:10;;;;;;;3.28;2.28;;;5.30;99.90;;;;;;5034420;28;20024;-77
2023/11/28 12:29:37;;;;;;;2.42;2.13;;;5.30;99.90;;;;;;5030578;28;20099;-76
2023/11/28 12:32:04;;;;;;;2.40;2.20;;;5.20;99.90;;;;;;5033962;28;20028;-76
2023/11/28 12:34:32;;;;;;;2.65;2.17;;;5.20;99.90;;;;;;5033943;28;20399;-76
2023/11/28 12:36:59;;;;;;;2.25;2.03;;;5.30;99.90;;;;;;5034522;28;20033;-76
2023/11/28 12:39:26;;;;;;;1.63;1.52;;;5.30;99.90;;;;;;5032558;28;20108;-76
2023/11/28 12:41:56;;;;;;;5.85;1.90;;;5.30;99.90;;;;;;5035746;28;20016;-75
2023/11/28 12:44:29;;;;;;;4.05;2.50;;;5.40;99.90;;;;;;5032234;28;20507;-76